Medina del Campo, Spain
Current Conditions -  °F | °C
As of 9:30 PM on Saturday 20 Dec 2014 (Local Time) from LEVD Reporting Station
Moderate Fog Moderate Fog  
Wind Chill: 37°   Ceiling: 100
Heat Index: 37°   Visibility: 0.12mi
Dew Point: 37°   Wind: 2mph
Humidity: 100%   Direction: NA
Pressure: 30.56"   Gusts: NA
Location:  41.31°N, 4.91°W
Report Text: LEVD 202030Z VRB02KT 0200 R23/0600N FG VV001 03/03 Q1035
Loading
Personal Weather Stations






























Interactive Weather Map New forecast layout! Learn more

10-Day Weather Forecast

Advertisements
Track Severe Weather on mobile